createdAt,value
2018-08-09T00:00:52.203Z,2.70
2018-08-09T00:03:21.215Z,2.10
2018-08-09T00:05:50.338Z,2.27
2018-08-09T00:08:19.253Z,1.90
2018-08-09T00:10:48.199Z,1.80
2018-08-09T00:13:17.129Z,2.30
2018-08-09T00:15:46.813Z,2.20
2018-08-09T00:18:15.753Z,2.13
2018-08-09T00:20:44.695Z,2.30
2018-08-09T00:23:13.678Z,2.30
2018-08-09T00:25:42.613Z,1.83
2018-08-09T00:28:11.525Z,2.57
2018-08-09T00:30:40.419Z,2.10
2018-08-09T00:33:09.345Z,1.90
2018-08-09T00:38:28.737Z,2.87
2018-08-09T00:40:57.662Z,2.10
2018-08-09T00:43:26.892Z,2.40
2018-08-09T00:45:55.797Z,2.20
2018-08-09T00:48:24.683Z,2.47
2018-08-09T00:50:55.461Z,2.30
2018-08-09T00:53:24.353Z,2.03
2018-08-09T00:55:53.257Z,3.10
2018-08-09T00:58:22.212Z,2.97
2018-08-09T01:00:51.143Z,2.63
2018-08-09T01:03:20.079Z,2.87
2018-08-09T01:05:49.006Z,2.67
2018-08-09T01:08:17.905Z,3.00
2018-08-09T01:10:46.812Z,3.77
2018-08-09T01:13:15.688Z,3.27
2018-08-09T01:15:44.630Z,3.50
2018-08-09T01:18:13.516Z,3.83
2018-08-09T01:20:42.460Z,3.40
2018-08-09T01:23:11.416Z,3.17
2018-08-09T01:25:40.332Z,3.33
2018-08-09T01:28:09.284Z,3.20
2018-08-09T01:30:38.248Z,3.27
2018-08-09T01:33:07.406Z,3.40
2018-08-09T01:35:36.353Z,3.70
2018-08-09T01:38:05.281Z,3.20
2018-08-09T01:40:34.649Z,3.40
2018-08-09T01:43:14.584Z,3.33
2018-08-09T01:45:43.508Z,3.70
2018-08-09T01:48:12.385Z,3.63
2018-08-09T01:50:41.345Z,3.17
2018-08-09T01:53:10.333Z,3.47
2018-08-09T01:55:39.284Z,3.17
2018-08-09T01:58:08.181Z,3.07
2018-08-09T02:00:37.091Z,3.77
2018-08-09T02:03:06.048Z,3.60
2018-08-09T02:05:34.972Z,3.30
2018-08-09T02:08:03.957Z,3.30
2018-08-09T02:10:32.909Z,3.27
2018-08-09T02:13:01.893Z,3.30
2018-08-09T02:15:30.878Z,3.70
2018-08-09T02:17:59.817Z,3.40
2018-08-09T02:20:28.833Z,3.57
2018-08-09T02:22:57.712Z,3.50
2018-08-09T02:25:26.624Z,3.63
2018-08-09T02:27:55.609Z,3.47
2018-08-09T02:30:24.625Z,4.00
2018-08-09T02:32:53.564Z,3.30
2018-08-09T02:35:23.209Z,3.50
2018-08-09T02:37:52.134Z,3.23
2018-08-09T02:40:21.050Z,2.73
2018-08-09T02:42:49.952Z,3.63
2018-08-09T02:45:18.861Z,3.63
2018-08-09T02:47:47.762Z,3.07
2018-08-09T02:50:16.707Z,2.90
2018-08-09T02:52:45.644Z,3.20
2018-08-09T02:55:14.570Z,3.53
2018-08-09T02:57:43.469Z,3.80
2018-08-09T03:00:12.388Z,3.80
2018-08-09T03:02:41.299Z,3.80
2018-08-09T03:05:10.218Z,3.53
2018-08-09T03:07:39.110Z,4.00
2018-08-09T03:10:08.039Z,4.10
2018-08-09T03:12:36.930Z,4.27
2018-08-09T03:15:06.044Z,4.47
2018-08-09T03:17:35.032Z,4.10
2018-08-09T03:20:04.025Z,4.37
2018-08-09T03:22:32.928Z,4.37
2018-08-09T03:25:01.848Z,4.20
2018-08-09T03:27:30.753Z,4.37
2018-08-09T03:29:59.881Z,4.40
2018-08-09T03:32:28.873Z,3.73
2018-08-09T03:34:57.870Z,4.27
2018-08-09T03:37:26.906Z,3.67
2018-08-09T03:39:55.812Z,4.47
2018-08-09T03:42:24.718Z,3.97
2018-08-09T03:44:53.598Z,4.53
2018-08-09T03:47:22.547Z,4.70
2018-08-09T03:49:51.420Z,3.70
2018-08-09T03:52:20.365Z,3.93
2018-08-09T03:54:49.305Z,4.13
2018-08-09T03:57:18.219Z,4.20
2018-08-09T03:59:47.191Z,3.73
2018-08-09T04:02:16.069Z,3.80
2018-08-09T04:04:44.953Z,4.30
2018-08-09T04:07:13.868Z,3.80
2018-08-09T04:09:42.756Z,4.00
2018-08-09T04:12:11.681Z,3.83
2018-08-09T04:14:40.620Z,3.87
2018-08-09T04:17:14.676Z,3.97
2018-08-09T04:19:43.572Z,3.77
2018-08-09T04:22:12.517Z,3.87
2018-08-09T04:24:42.109Z,4.00
2018-08-09T04:27:11.062Z,3.90
2018-08-09T04:29:40.009Z,3.67
2018-08-09T04:32:09.022Z,3.90
2018-08-09T04:34:37.956Z,3.63
2018-08-09T04:37:07.533Z,3.30
2018-08-09T04:39:36.617Z,3.83
2018-08-09T04:42:05.797Z,4.17
2018-08-09T04:44:34.910Z,4.10
2018-08-09T04:47:03.886Z,4.33
2018-08-09T04:49:33.216Z,4.83
2018-08-09T04:52:02.132Z,4.27
2018-08-09T04:54:31.025Z,4.80
2018-08-09T04:56:59.924Z,5.10
2018-08-09T04:59:28.836Z,4.97
2018-08-09T05:01:57.728Z,6.03
2018-08-09T05:04:26.665Z,6.53
2018-08-09T05:06:55.568Z,6.60
2018-08-09T05:09:24.544Z,6.47
2018-08-09T05:11:53.441Z,7.12
2018-08-09T05:14:22.365Z,6.10
2018-08-09T05:16:51.253Z,5.97
2018-08-09T05:19:20.132Z,6.57
2018-08-09T05:21:49.024Z,6.60
2018-08-09T05:24:17.952Z,6.43
2018-08-09T05:26:46.918Z,5.30
2018-08-09T05:29:15.941Z,5.83
2018-08-09T05:31:44.996Z,6.47
2018-08-09T05:34:13.972Z,6.70
2018-08-09T05:36:42.883Z,6.03
2018-08-09T05:39:12.579Z,6.60
2018-08-09T05:41:42.029Z,6.37
2018-08-09T05:44:11.029Z,6.43
2018-08-09T05:46:39.957Z,6.17
2018-08-09T05:49:08.895Z,5.77
2018-08-09T05:51:37.801Z,6.30
2018-08-09T05:54:06.677Z,6.40
2018-08-09T05:56:35.564Z,6.40
2018-08-09T05:59:04.460Z,5.83
2018-08-09T06:01:33.358Z,6.07
2018-08-09T06:04:02.273Z,5.93
2018-08-09T06:06:31.182Z,6.60
2018-08-09T06:09:00.057Z,6.00
2018-08-09T06:11:28.960Z,6.20
2018-08-09T06:13:58.716Z,6.90
2018-08-09T06:16:28.689Z,6.50
2018-08-09T06:18:57.660Z,6.50
2018-08-09T06:21:26.500Z,6.80
2018-08-09T06:23:55.410Z,6.83
2018-08-09T06:26:24.309Z,6.53
2018-08-09T06:28:53.224Z,7.30
2018-08-09T06:31:22.122Z,6.53
2018-08-09T06:33:51.019Z,6.90
2018-08-09T06:36:20.026Z,6.80
2018-08-09T06:38:48.956Z,6.97
2018-08-09T06:41:17.833Z,6.73
2018-08-09T06:43:46.742Z,6.63
2018-08-09T06:46:15.695Z,7.80
2018-08-09T06:48:44.621Z,8.10
2018-08-09T06:51:13.521Z,7.10
2018-08-09T06:53:42.459Z,7.20
2018-08-09T06:56:11.345Z,7.60
2018-08-09T06:58:40.261Z,8.20
2018-08-09T07:01:09.261Z,7.47
2018-08-09T07:03:38.173Z,7.30
2018-08-09T07:06:07.117Z,7.77
2018-08-09T07:08:36.013Z,7.63
2018-08-09T07:11:04.924Z,8.13
2018-08-09T07:13:33.837Z,8.53
2018-08-09T07:16:02.820Z,7.97
2018-08-09T07:18:31.805Z,7.23
2018-08-09T07:21:00.683Z,8.10
2018-08-09T07:23:29.559Z,9.00
2018-08-09T07:25:58.504Z,8.27
2018-08-09T07:28:27.425Z,9.07
2018-08-09T07:30:56.309Z,8.70
2018-08-09T07:33:25.215Z,9.03
2018-08-09T07:35:54.074Z,8.70
2018-08-09T07:38:23.101Z,9.23
2018-08-09T07:40:51.981Z,8.47
2018-08-09T07:43:20.849Z,8.73
2018-08-09T07:45:49.729Z,8.90
2018-08-09T07:48:18.710Z,8.63
2018-08-09T07:50:47.598Z,8.53
2018-08-09T07:53:16.509Z,7.73
2018-08-09T07:55:45.378Z,7.77
2018-08-09T07:58:14.246Z,7.43
2018-08-09T08:00:43.120Z,7.70
2018-08-09T08:03:12.007Z,7.80
2018-08-09T08:05:40.911Z,7.37
2018-08-09T08:08:09.903Z,7.37
2018-08-09T08:10:38.801Z,6.87
2018-08-09T08:13:07.645Z,7.43
2018-08-09T08:15:36.533Z,8.90
2018-08-09T08:18:05.409Z,8.10
2018-08-09T08:20:34.292Z,7.60
2018-08-09T08:23:03.255Z,8.67
2018-08-09T08:25:32.454Z,8.70
2018-08-09T08:28:01.481Z,8.67
2018-08-09T08:30:30.445Z,8.23
2018-08-09T08:32:59.346Z,8.80
2018-08-09T08:35:28.660Z,7.97
2018-08-09T08:37:58.089Z,7.70
2018-08-09T08:40:26.994Z,7.13
2018-08-09T08:42:55.918Z,7.30
2018-08-09T08:45:24.878Z,7.30
2018-08-09T08:47:56.343Z,6.80
2018-08-09T08:50:25.325Z,6.80
2018-08-09T08:54:18.656Z,7.30
2018-08-09T08:56:51.417Z,7.40
2018-08-09T08:59:20.346Z,6.93
2018-08-09T09:01:49.275Z,6.30
2018-08-09T09:04:18.260Z,7.10
2018-08-09T09:06:47.520Z,7.67
2018-08-09T09:09:16.538Z,7.40
2018-08-09T09:11:45.421Z,6.60
2018-08-09T09:14:14.525Z,6.73
2018-08-09T09:16:43.416Z,7.60
2018-08-09T09:19:12.665Z,7.17
2018-08-09T09:21:41.548Z,6.57
2018-08-09T09:24:10.458Z,6.27
2018-08-09T09:26:42.499Z,6.00
2018-08-09T09:29:11.421Z,6.53
2018-08-09T09:31:40.337Z,7.23
2018-08-09T09:34:09.260Z,5.70
2018-08-09T09:36:38.180Z,6.73
2018-08-09T09:39:08.869Z,7.93
2018-08-09T09:41:37.989Z,6.70
2018-08-09T09:44:07.004Z,5.10
2018-08-09T09:46:35.978Z,5.60
2018-08-09T09:49:04.905Z,5.10
2018-08-09T09:51:33.822Z,4.30
2018-08-09T09:54:02.695Z,4.93
2018-08-09T09:56:31.558Z,5.03
2018-08-09T09:59:00.533Z,4.77
2018-08-09T10:01:35.269Z,5.23
2018-08-09T10:04:05.257Z,4.83
2018-08-09T10:06:34.918Z,5.07
2018-08-09T10:09:08.254Z,5.43
2018-08-09T10:11:37.795Z,4.60
2018-08-09T10:14:06.939Z,4.47
2018-08-09T10:16:35.841Z,4.23
2018-08-09T10:19:04.744Z,4.80
2018-08-09T10:21:35.321Z,4.73
2018-08-09T10:24:06.438Z,4.47
2018-08-09T10:26:35.429Z,5.57
2018-08-09T10:29:04.574Z,4.83
2018-08-09T10:31:33.481Z,5.10
2018-08-09T10:34:02.377Z,4.37
2018-08-09T10:36:31.291Z,5.43
2018-08-09T10:39:00.185Z,5.00
2018-08-09T10:41:29.136Z,5.13
2018-08-09T10:43:58.089Z,5.30
2018-08-09T10:46:27.065Z,5.20
2018-08-09T10:48:56.040Z,5.03
2018-08-09T10:51:24.962Z,5.00
2018-08-09T10:53:55.798Z,4.93
2018-08-09T10:56:24.858Z,4.70
2018-08-09T10:58:53.777Z,5.30
2018-08-09T11:01:22.713Z,4.97
2018-08-09T11:03:51.636Z,4.80
2018-08-09T11:06:21.365Z,4.93
2018-08-09T11:08:50.297Z,4.77
2018-08-09T11:11:19.217Z,5.73
2018-08-09T11:13:48.121Z,5.03
2018-08-09T11:16:17.070Z,5.23
2018-08-09T11:18:46.181Z,5.03
2018-08-09T11:21:15.379Z,4.87
2018-08-09T11:23:44.369Z,6.10
2018-08-09T11:26:14.139Z,5.87
2018-08-09T11:28:43.051Z,6.20
2018-08-09T11:31:12.033Z,6.57
2018-08-09T11:33:40.953Z,5.63
2018-08-09T11:36:09.870Z,6.10
2018-08-09T11:38:38.812Z,6.83
2018-08-09T11:41:07.845Z,7.33
2018-08-09T11:43:36.761Z,7.53
2018-08-09T11:46:06.344Z,8.07
2018-08-09T11:48:35.238Z,9.10
2018-08-09T11:51:04.127Z,9.10
2018-08-09T11:53:33.054Z,9.23
2018-08-09T11:56:02.003Z,9.20
2018-08-09T11:58:30.979Z,8.93
2018-08-09T12:01:00.205Z,9.37
2018-08-09T12:03:29.121Z,9.53
2018-08-09T12:05:58.059Z,9.90
2018-08-09T12:08:26.993Z,9.90
2018-08-09T12:10:55.919Z,10.13
2018-08-09T12:13:24.876Z,11.40
2018-08-09T12:15:53.785Z,12.83
2018-08-09T12:18:25.644Z,12.80
2018-08-09T12:20:54.693Z,11.63
2018-08-09T12:23:24.124Z,13.03
2018-08-09T12:25:53.169Z,13.70
2018-08-09T12:28:22.114Z,13.37
2018-08-09T12:30:54.881Z,13.17
2018-08-09T12:33:23.827Z,12.77
2018-08-09T12:35:53.214Z,15.40
2018-08-09T12:38:22.109Z,14.13
2018-08-09T12:40:51.081Z,14.53
2018-08-09T12:43:19.969Z,14.20
2018-08-09T12:45:48.877Z,14.57
2018-08-09T12:48:18.937Z,13.00
2018-08-09T12:50:48.853Z,13.20
2018-08-09T12:53:17.806Z,15.13
2018-08-09T12:55:46.693Z,13.90
2018-08-09T12:58:15.618Z,14.60
2018-08-09T13:00:44.525Z,14.57
2018-08-09T13:03:13.416Z,14.83
2018-08-09T13:05:43.160Z,14.57
2018-08-09T13:08:12.070Z,14.67
2018-08-09T13:10:40.928Z,15.37
2018-08-09T13:13:09.852Z,15.27
2018-08-09T13:16:09.353Z,15.47
2018-08-09T13:18:48.605Z,13.70
2018-08-09T13:21:18.477Z,15.13
2018-08-09T13:23:47.456Z,15.73
2018-08-09T13:26:16.549Z,16.27
2018-08-09T13:28:46.078Z,16.13
2018-08-09T13:31:17.820Z,15.00
2018-08-09T13:33:47.468Z,15.57
2018-08-09T13:36:16.794Z,16.13
2018-08-09T13:38:46.384Z,17.77
2018-08-09T13:41:15.937Z,15.97
2018-08-09T13:43:45.110Z,15.80
2018-08-09T13:46:14.801Z,15.23
2018-08-09T13:48:44.324Z,15.53
2018-08-09T13:51:16.489Z,15.47
2018-08-09T13:53:45.405Z,16.07
2018-08-09T13:56:14.449Z,16.13
2018-08-09T13:58:43.445Z,16.67
2018-08-09T14:01:13.171Z,18.37
2018-08-09T14:03:42.029Z,16.20
2018-08-09T14:06:11.015Z,15.83
2018-08-09T14:08:39.892Z,18.33
2018-08-09T14:11:08.813Z,17.43
2018-08-09T14:13:37.956Z,18.07
2018-08-09T14:16:07.206Z,18.07
2018-08-09T14:18:36.109Z,17.53
2018-08-09T14:21:05.582Z,18.13
2018-08-09T14:23:34.546Z,17.13
2018-08-09T14:26:03.454Z,19.57
2018-08-09T14:28:32.961Z,19.27
2018-08-09T14:31:01.940Z,20.20
2018-08-09T14:33:30.848Z,20.43
2018-08-09T14:37:24.157Z,20.30
2018-08-09T14:39:54.404Z,19.20
2018-08-09T14:42:23.316Z,18.57
2018-08-09T14:44:52.877Z,20.17
2018-08-09T14:47:22.453Z,20.20
2018-08-09T14:49:51.429Z,20.17
2018-08-09T14:52:20.351Z,21.57
2018-08-09T14:54:50.325Z,20.47
2018-08-09T14:57:20.128Z,22.10
2018-08-09T14:59:49.200Z,20.83
2018-08-09T15:02:18.784Z,20.70
2018-08-09T15:04:47.829Z,22.13
2018-08-09T15:07:16.740Z,22.63
2018-08-09T15:09:45.714Z,23.17
2018-08-09T15:12:16.197Z,23.23
2018-08-09T15:14:45.081Z,23.33
2018-08-09T15:17:14.041Z,23.03
2018-08-09T15:19:43.085Z,23.20
2018-08-09T15:22:12.029Z,23.70
2018-08-09T15:24:40.933Z,23.20
2018-08-09T15:27:09.816Z,25.00
2018-08-09T15:29:39.562Z,24.53
2018-08-09T15:32:08.469Z,24.30
2018-08-09T15:34:37.317Z,26.10
2018-08-09T15:37:06.533Z,24.17
2018-08-09T15:39:35.484Z,24.20
2018-08-09T15:42:04.970Z,24.00
2018-08-09T15:44:33.865Z,25.33
2018-08-09T15:47:03.266Z,23.87
2018-08-09T15:49:32.241Z,26.43
2018-08-09T15:52:01.148Z,24.33
2018-08-09T15:54:30.049Z,25.17
2018-08-09T15:56:59.218Z,25.87
2018-08-09T15:59:28.148Z,22.17
2018-08-09T16:01:57.089Z,23.43
2018-08-09T16:04:26.675Z,25.77
2018-08-09T16:06:56.430Z,24.67
2018-08-09T16:09:25.914Z,22.33
2018-08-09T16:11:55.157Z,22.07
2018-08-09T16:14:24.079Z,22.30
2018-08-09T16:16:53.110Z,22.63
2018-08-09T16:19:22.437Z,22.47
2018-08-09T16:21:51.714Z,24.50
2018-08-09T16:24:20.618Z,22.43
2018-08-09T16:26:49.574Z,22.40
2018-08-09T16:29:19.053Z,22.77
2018-08-09T16:31:48.099Z,22.97
2018-08-09T16:34:17.188Z,22.80
2018-08-09T16:36:46.248Z,25.07
2018-08-09T16:39:15.785Z,27.70
2018-08-09T16:41:44.686Z,25.20
2018-08-09T16:44:14.134Z,27.33
2018-08-09T16:46:43.349Z,29.13
2018-08-09T16:49:12.225Z,27.83
2018-08-09T16:51:41.181Z,26.60
2018-08-09T16:54:10.213Z,30.17
2018-08-09T16:56:39.217Z,30.27
2018-08-09T16:59:08.130Z,33.13
2018-08-09T17:01:37.099Z,31.60
2018-08-09T17:04:06.079Z,34.00
2018-08-09T17:06:34.992Z,35.47
2018-08-09T17:09:06.789Z,35.67
2018-08-09T17:11:39.918Z,34.63
2018-08-09T17:14:08.830Z,38.17
2018-08-09T17:16:38.630Z,40.90
2018-08-09T17:19:08.005Z,41.97
2018-08-09T17:21:37.298Z,39.50
2018-08-09T17:24:07.230Z,43.50
2018-08-09T17:26:36.146Z,42.07
2018-08-09T17:29:05.389Z,44.07
2018-08-09T17:31:34.471Z,43.37
2018-08-09T17:34:03.387Z,13.77
2018-08-09T17:36:32.470Z,5.27
2018-08-09T17:39:01.501Z,3.33
2018-08-09T17:41:30.510Z,4.20
2018-08-09T17:43:59.447Z,4.50
2018-08-09T17:46:28.414Z,5.33
2018-08-09T17:48:57.334Z,5.10
2018-08-09T17:51:26.237Z,4.50
2018-08-09T17:53:55.157Z,4.50
2018-08-09T17:56:24.118Z,4.67
2018-08-09T17:58:53.077Z,3.10
2018-08-09T18:01:22.022Z,2.80
2018-08-09T18:03:51.082Z,2.97
2018-08-09T18:06:20.149Z,3.33
2018-08-09T18:08:49.274Z,3.20
2018-08-09T18:11:18.594Z,3.07
2018-08-09T18:13:47.573Z,3.00
2018-08-09T18:16:16.465Z,2.77
2018-08-09T18:18:45.781Z,3.13
2018-08-09T18:21:14.828Z,4.30
2018-08-09T18:23:44.198Z,3.07
2018-08-09T18:26:13.245Z,3.57
2018-08-09T18:28:42.419Z,3.77
2018-08-09T18:31:11.333Z,3.90
2018-08-09T18:33:40.383Z,4.23
2018-08-09T18:36:09.294Z,4.40
2018-08-09T18:38:38.178Z,3.97
2018-08-09T18:41:07.089Z,3.70
2018-08-09T18:43:36.037Z,3.50
2018-08-09T18:46:04.978Z,2.80
2018-08-09T18:48:34.361Z,3.53
2018-08-09T18:51:04.140Z,3.37
2018-08-09T18:53:33.142Z,2.40
2018-08-09T18:56:02.090Z,3.00
2018-08-09T18:58:31.005Z,2.40
2018-08-09T19:00:59.895Z,2.90
2018-08-09T19:03:28.849Z,2.63
2018-08-09T19:05:57.781Z,2.50
2018-08-09T19:08:26.832Z,3.15
2018-08-09T19:10:57.025Z,2.43
2018-08-09T19:13:26.041Z,2.70
2018-08-09T19:15:55.043Z,3.67
2018-08-09T19:18:24.021Z,2.77
2018-08-09T19:20:53.054Z,3.20
2018-08-09T19:23:21.969Z,2.93
2018-08-09T19:25:51.101Z,2.70
2018-08-09T19:28:20.765Z,3.17
2018-08-09T19:30:49.710Z,3.10
2018-08-09T19:33:18.669Z,3.37
2018-08-09T19:35:47.544Z,2.87
2018-08-09T19:38:16.454Z,2.53
2018-08-09T19:40:45.391Z,2.27
2018-08-09T19:43:14.332Z,2.10
2018-08-09T19:45:43.286Z,1.67
2018-08-09T19:48:12.204Z,1.30
2018-08-09T19:50:41.437Z,1.63
2018-08-09T19:53:10.715Z,1.40
2018-08-09T19:55:39.681Z,1.53
2018-08-09T19:58:08.684Z,1.30
2018-08-09T20:00:38.377Z,1.17
2018-08-09T20:03:07.379Z,1.93
2018-08-09T20:05:36.421Z,1.30
2018-08-09T20:08:05.347Z,2.43
2018-08-09T20:10:34.298Z,1.70
2018-08-09T20:13:04.250Z,1.77
2018-08-09T20:15:33.605Z,2.03
2018-08-09T20:18:03.018Z,1.83
2018-08-09T20:20:32.009Z,2.07
2018-08-09T20:23:00.941Z,2.17
2018-08-09T20:25:29.884Z,1.70
2018-08-09T20:27:58.782Z,1.73
2018-08-09T20:30:27.937Z,2.07
2018-08-09T20:32:56.860Z,2.60
2018-08-09T20:36:14.528Z,2.03
2018-08-09T20:38:43.813Z,2.23
2018-08-09T20:41:12.809Z,2.23
2018-08-09T20:43:41.819Z,2.80
2018-08-09T20:46:10.710Z,2.27
2018-08-09T20:48:39.601Z,2.33
2018-08-09T20:51:08.873Z,2.80
2018-08-09T20:53:41.972Z,3.20
2018-08-09T20:56:10.878Z,2.30
2018-08-09T20:58:39.765Z,2.67
2018-08-09T21:01:08.665Z,2.30
2018-08-09T21:03:37.628Z,2.00
2018-08-09T21:06:06.775Z,2.33
2018-08-09T21:08:35.749Z,2.50
2018-08-09T21:11:04.661Z,2.30
2018-08-09T21:13:33.785Z,2.13
2018-08-09T21:16:03.670Z,2.20
2018-08-09T21:18:32.580Z,2.03
2018-08-09T21:21:01.459Z,2.03
2018-08-09T21:23:31.280Z,2.00
2018-08-09T21:26:00.201Z,2.33
2018-08-09T21:28:29.701Z,1.90
2018-08-09T21:30:58.621Z,2.30
2018-08-09T21:33:29.797Z,1.90
2018-08-09T21:35:58.734Z,2.70
2018-08-09T21:38:27.650Z,2.43
2018-08-09T21:40:56.731Z,2.20
2018-08-09T21:43:25.657Z,1.60
2018-08-09T21:45:54.673Z,2.10
2018-08-09T21:48:23.554Z,1.87
2018-08-09T21:50:53.393Z,1.97
2018-08-09T21:53:22.265Z,1.70
2018-08-09T21:55:51.192Z,1.60
2018-08-09T21:58:20.164Z,1.93
2018-08-09T22:00:57.720Z,1.47
2018-08-09T22:03:29.168Z,1.63
2018-08-09T22:06:03.328Z,1.57
2018-08-09T22:08:37.376Z,1.10
2018-08-09T22:11:12.015Z,1.80
2018-08-09T22:13:46.203Z,1.87
2018-08-09T22:16:20.245Z,1.63
2018-08-09T22:18:54.320Z,2.20
2018-08-09T22:21:28.362Z,1.70
2018-08-09T22:23:57.813Z,1.90
2018-08-09T22:26:26.735Z,2.47
2018-08-09T22:28:56.253Z,1.80
2018-08-09T22:31:25.177Z,1.80
2018-08-09T22:33:54.593Z,1.83
2018-08-09T22:36:23.524Z,1.50
2018-08-09T22:38:52.520Z,1.23
2018-08-09T22:41:21.417Z,1.60
2018-08-09T22:43:50.337Z,1.90
2018-08-09T22:46:19.210Z,1.57
2018-08-09T22:48:48.141Z,1.70
2018-08-09T22:51:17.126Z,1.90
2018-08-09T22:53:46.077Z,1.70
2018-08-09T22:56:14.981Z,1.80
2018-08-09T22:58:43.877Z,1.83
2018-08-09T23:01:12.777Z,1.90
2018-08-09T23:03:41.701Z,2.00
2018-08-09T23:06:10.637Z,2.43
2018-08-09T23:08:39.494Z,1.30
2018-08-09T23:11:08.510Z,1.50
2018-08-09T23:13:37.390Z,1.97
2018-08-09T23:16:06.729Z,1.60
2018-08-09T23:18:35.606Z,1.60
2018-08-09T23:21:04.492Z,1.60
2018-08-09T23:23:33.360Z,1.50
2018-08-09T23:26:02.258Z,1.20
2018-08-09T23:28:31.277Z,1.20
2018-08-09T23:31:00.202Z,1.62
2018-08-09T23:33:29.174Z,1.30
2018-08-09T23:35:58.089Z,1.30
2018-08-09T23:38:26.956Z,1.40
2018-08-09T23:40:55.933Z,1.13
2018-08-09T23:43:24.806Z,1.27
2018-08-09T23:45:53.698Z,1.27
2018-08-09T23:48:22.744Z,2.07
2018-08-09T23:50:51.646Z,1.50
2018-08-09T23:53:20.581Z,1.73
2018-08-09T23:55:49.513Z,1.43
2018-08-09T23:58:18.413Z,1.50
